Terminal Aerodrome Forecast
Issued by NWS Sterling, VA

Current Version | Previous Version | Graphics & Text | Print | Product List | Glossary On
Versions: 1 2 3 4 5 6 7 8 9 10 11 12 13 14 15 16 17 18 19 20 21
000
FTUS41 KLWX 240314 AAA
TAFMRB
TAF AMD
KMRB 240314Z 2403/2424 23004KT P6SM VCTS BKN060CB
      TEMPO 2403/2405 3SM -TSRA BR BKN025CB
     FM240500 VRB03KT P6SM BKN080
     FM241100 28005KT P6SM SCT250
     FM241400 30007KT P6SM SCT035=

USA.gov is the U.S. government's official web portal to all federal, state and local government web resources and services.